Time;durP1;ratioP1;P1;durP2;ratioP2;P2;SDS_P1;SDS_P2;PMS_P1;PMS_P2;Temp;Humidity;BMP_temperature;BMP_pressure;BME280_temperature;BME280_humidity;BME280_pressure;Samples;Min_cycle;Max_cycle;Signal;HPM_P1;HPM_P2
2022/12/05 00:01:23;;;;;;;10.10;9.50;;;21.00;50.60;;;;;;5051658;28;20487;-57
2022/12/05 00:03:51;;;;;;;8.73;8.23;;;20.90;51.10;;;;;;5046103;28;20477;-58
2022/12/05 00:06:19;;;;;;;10.63;9.93;;;20.90;50.60;;;;;;5031750;28;20449;-58
2022/12/05 00:08:48;;;;;;;10.13;9.43;;;20.90;50.70;;;;;;5031644;28;20484;-59
2022/12/05 00:11:17;;;;;;;9.53;8.93;;;20.90;50.70;;;;;;5031788;28;20504;-55
2022/12/05 00:13:44;;;;;;;9.73;9.13;;;20.80;50.70;;;;;;5028527;28;20825;-57
2022/12/05 00:16:14;;;;;;;9.47;8.87;;;20.80;50.80;;;;;;5012018;28;20861;-58
2022/12/05 00:18:41;;;;;;;9.50;8.90;;;20.80;50.80;;;;;;5012092;28;20484;-59
2022/12/05 00:21:13;;;;;;;8.93;8.33;;;20.70;50.80;;;;;;5011856;28;20573;-60
2022/12/05 00:23:40;;;;;;;9.60;8.97;;;20.70;50.80;;;;;;5027556;28;20908;-59
2022/12/05 00:26:08;;;;;;;9.47;8.90;;;20.70;50.90;;;;;;5031531;28;20966;-56
2022/12/05 00:28:36;;;;;;;9.10;8.43;;;20.70;51.00;;;;;;5031556;28;20495;-55
2022/12/05 00:31:04;;;;;;;9.50;8.90;;;20.70;51.00;;;;;;5031300;28;20463;-58
2022/12/05 00:33:31;;;;;;;9.53;8.90;;;20.60;51.00;;;;;;5017055;28;20492;-57
2022/12/05 00:36:01;;;;;;;9.20;8.60;;;20.60;51.00;;;;;;5011772;28;20451;-59
2022/12/05 00:38:28;;;;;;;9.23;8.63;;;20.60;51.00;;;;;;5011770;28;20485;-55
2022/12/05 00:40:55;;;;;;;9.93;9.20;;;20.60;51.00;;;;;;5011333;28;20478;-59
2022/12/05 00:43:23;;;;;;;9.40;8.80;;;20.60;51.00;;;;;;5024510;28;20446;-57
2022/12/05 00:45:50;;;;;;;9.20;8.60;;;20.60;51.10;;;;;;5031518;28;20445;-58
2022/12/05 00:48:17;;;;;;;9.10;8.50;;;20.50;51.00;;;;;;5031317;28;20810;-58
2022/12/05 00:50:44;;;;;;;9.60;8.90;;;20.50;51.10;;;;;;5031110;28;20461;-59
2022/12/05 00:53:11;;;;;;;9.47;8.87;;;20.50;51.10;;;;;;5019916;28;20975;-59
2022/12/05 00:55:38;;;;;;;8.73;8.13;;;20.50;51.10;;;;;;5011604;28;20441;-57
2022/12/05 00:58:04;;;;;;;9.40;8.80;;;20.50;51.20;;;;;;5011541;28;20528;-59
2022/12/05 01:00:33;;;;;;;9.10;8.40;;;20.50;51.20;;;;;;5011344;28;20466;-57
2022/12/05 01:02:59;;;;;;;9.43;8.93;;;20.50;51.20;;;;;;5020760;28;20473;-57
2022/12/05 01:05:26;;;;;;;9.33;8.80;;;20.40;51.10;;;;;;5031244;28;20441;-59
2022/12/05 01:07:53;;;;;;;8.53;7.90;;;20.40;51.20;;;;;;5031276;28;20862;-57
2022/12/05 01:10:20;;;;;;;9.63;8.90;;;20.40;51.20;;;;;;5030784;28;20457;-58
2022/12/05 01:12:47;;;;;;;7.80;7.40;;;20.30;51.20;;;;;;5030870;28;20452;-58
2022/12/05 01:15:13;;;;;;;9.40;8.80;;;20.30;51.80;;;;;;5033543;28;20440;-59
2022/12/05 01:17:42;;;;;;;9.03;8.43;;;20.30;51.40;;;;;;5034930;28;20444;-56
2022/12/05 01:20:09;;;;;;;8.80;8.30;;;20.20;51.40;;;;;;5034714;28;20465;-59
2022/12/05 01:22:36;;;;;;;9.53;8.90;;;20.20;51.40;;;;;;5028842;28;20564;-58
2022/12/05 01:25:04;;;;;;;9.77;9.17;;;20.20;51.50;;;;;;5014938;28;20948;-58
2022/12/05 01:27:30;;;;;;;11.17;10.37;;;20.20;51.60;;;;;;5015322;28;20476;-59
2022/12/05 01:29:58;;;;;;;9.37;8.73;;;20.20;51.60;;;;;;5014656;28;20529;-57
2022/12/05 01:32:24;;;;;;;10.97;10.17;;;20.20;51.70;;;;;;5032207;28;20441;-59
2022/12/05 01:34:54;;;;;;;11.43;10.63;;;20.20;51.70;;;;;;5034709;28;20540;-57
2022/12/05 01:37:21;;;;;;;10.50;9.80;;;20.10;51.60;;;;;;5034541;28;20503;-55
2022/12/05 01:39:49;;;;;;;9.50;8.80;;;20.10;51.60;;;;;;5034166;28;20975;-57
2022/12/05 01:42:16;;;;;;;9.80;9.10;;;20.10;51.70;;;;;;5083848;23;21123;-52
2022/12/05 01:45:02;;;;;;;9.33;8.67;;;20.10;51.70;;;;;;5053567;28;20428;-48
2022/12/05 01:47:31;;;;;;;9.07;8.47;;;20.10;51.70;;;;;;5054335;28;20522;-48
2022/12/05 01:50:00;;;;;;;8.70;8.10;;;20.10;51.70;;;;;;5042336;28;20616;-48
2022/12/05 01:52:30;;;;;;;11.07;10.37;;;20.00;51.70;;;;;;5014681;28;20533;-48
2022/12/05 01:55:01;;;;;;;9.60;9.00;;;20.00;51.70;;;;;;5014917;28;20511;-49
2022/12/05 01:57:28;;;;;;;8.03;7.53;;;20.00;51.70;;;;;;5014667;28;21140;-50
2022/12/05 01:59:59;;;;;;;8.93;8.33;;;20.00;51.80;;;;;;5013999;28;20886;-48
2022/12/05 02:02:27;;;;;;;10.40;9.13;;;20.00;51.70;;;;;;5014275;28;20595;-49
2022/12/05 02:05:04;;;;;;;8.53;7.93;;;20.00;51.70;;;;;;5014317;28;20473;-53
2022/12/05 02:07:32;;;;;;;9.43;8.80;;;20.00;51.70;;;;;;5014273;28;20537;-49
2022/12/05 02:09:58;;;;;;;9.47;8.87;;;20.00;51.80;;;;;;5013728;28;20816;-50
2022/12/05 02:12:26;;;;;;;9.23;8.50;;;19.90;51.70;;;;;;5014081;28;20544;-50
2022/12/05 02:15:16;;;;;;;10.07;9.47;;;19.90;51.70;;;;;;5014240;28;20580;-48
2022/12/05 02:17:51;;;;;;;9.03;8.43;;;19.90;51.80;;;;;;5014105;28;20537;-51
2022/12/05 02:20:35;;;;;;;10.03;9.30;;;19.90;51.80;;;;;;5013707;28;20452;-48
2022/12/05 02:23:25;;;;;;;9.47;8.77;;;19.90;51.80;;;;;;4994394;28;20505;-48
2022/12/05 02:26:36;;;;;;;8.47;7.97;;;19.90;51.80;;;;;;4993860;28;20439;-48
2022/12/05 02:29:28;;;;;;;8.43;7.90;;;19.90;51.90;;;;;;4994356;28;20872;-51
2022/12/05 02:32:05;;;;;;;9.90;9.17;;;19.80;51.80;;;;;;5003098;28;20461;-48
2022/12/05 02:34:36;;;;;;;9.07;8.47;;;19.80;51.80;;;;;;5013737;28;20445;-48
2022/12/05 02:37:09;;;;;;;9.07;8.27;;;19.80;51.80;;;;;;5013774;28;20442;-48
2022/12/05 02:39:43;;;;;;;9.47;8.80;;;19.80;51.90;;;;;;5013359;28;20489;-48
2022/12/05 02:42:15;;;;;;;9.43;8.80;;;19.80;51.90;;;;;;5013131;28;20576;-48
2022/12/05 02:44:48;;;;;;;10.23;9.53;;;19.80;51.90;;;;;;5013558;28;20488;-49
2022/12/05 02:47:19;;;;;;;9.43;8.70;;;19.80;52.00;;;;;;5013686;28;20442;-48
2022/12/05 02:49:47;;;;;;;9.30;8.63;;;19.70;51.90;;;;;;5013277;28;20438;-48
2022/12/05 02:52:16;;;;;;;9.43;8.83;;;19.80;52.00;;;;;;5013519;28;20541;-48
2022/12/05 02:54:48;;;;;;;9.80;9.13;;;19.70;51.90;;;;;;5013075;28;20932;-48
2022/12/05 02:57:17;;;;;;;9.30;8.70;;;19.70;51.90;;;;;;5013505;28;20537;-48
2022/12/05 02:59:43;;;;;;;8.93;8.43;;;19.70;51.90;;;;;;5013240;28;20450;-55
2022/12/05 03:02:23;;;;;;;9.90;9.20;;;19.70;52.00;;;;;;5013144;28;20903;-50
2022/12/05 03:04:50;;;;;;;10.30;9.60;;;19.70;52.10;;;;;;5013321;28;20481;-51
2022/12/05 03:07:20;;;;;;;9.17;8.57;;;19.70;52.00;;;;;;5012850;28;20454;-48
2022/12/05 03:09:51;;;;;;;9.37;8.77;;;19.70;52.00;;;;;;5012939;28;20540;-48
2022/12/05 03:12:22;;;;;;;8.83;8.33;;;19.60;52.00;;;;;;5013034;28;20897;-50
2022/12/05 03:14:53;;;;;;;10.37;9.67;;;19.60;52.00;;;;;;5012964;28;20522;-48
2022/12/05 03:17:25;;;;;;;9.60;9.00;;;19.60;52.10;;;;;;5012776;28;20544;-51
2022/12/05 03:19:57;;;;;;;9.40;8.80;;;19.60;52.20;;;;;;4993188;28;20541;-52
2022/12/05 03:22:30;;;;;;;10.53;9.60;;;19.60;52.20;;;;;;4993078;28;20482;-54
2022/12/05 03:24:57;;;;;;;8.13;7.63;;;19.60;52.20;;;;;;4993324;28;20811;-50
2022/12/05 03:27:32;;;;;;;9.20;8.60;;;19.60;52.20;;;;;;4993076;28;20926;-49
2022/12/05 03:30:04;;;;;;;10.30;9.40;;;19.60;52.20;;;;;;4996490;28;20521;-50
2022/12/05 03:32:39;;;;;;;9.30;8.70;;;19.60;52.20;;;;;;5012758;28;20512;-51
2022/12/05 03:35:10;;;;;;;10.37;9.60;;;19.60;52.20;;;;;;5012686;28;20980;-49
2022/12/05 03:37:45;;;;;;;9.77;9.07;;;19.60;52.20;;;;;;5012161;28;20984;-49
2022/12/05 03:40:22;;;;;;;10.03;9.33;;;19.60;52.20;;;;;;5012252;28;20473;-50
2022/12/05 03:42:54;;;;;;;9.17;8.50;;;19.60;52.20;;;;;;5012170;28;20478;-51
2022/12/05 03:45:28;;;;;;;10.37;9.67;;;19.60;52.20;;;;;;5012523;28;20446;-50
2022/12/05 03:48:04;;;;;;;10.43;9.63;;;19.50;52.20;;;;;;5012427;28;20445;-52
2022/12/05 03:50:33;;;;;;;9.50;8.90;;;19.50;52.20;;;;;;5011953;28;20481;-54
2022/12/05 03:53:04;;;;;;;9.50;8.77;;;19.50;52.20;;;;;;5012359;28;20545;-51
2022/12/05 03:55:35;;;;;;;9.03;8.43;;;19.50;52.20;;;;;;5012350;28;20452;-49
2022/12/05 03:58:07;;;;;;;10.03;9.30;;;19.50;52.20;;;;;;5012247;28;20449;-49
2022/12/05 04:00:37;;;;;;;10.33;9.53;;;19.50;52.20;;;;;;5011878;28;20466;-50
2022/12/05 04:03:09;;;;;;;9.10;8.50;;;19.50;52.20;;;;;;5012239;28;21115;-50
2022/12/05 04:05:44;;;;;;;10.97;10.27;;;19.50;52.80;;;;;;5012369;28;21123;-49
2022/12/05 04:08:17;;;;;;;9.70;8.90;;;19.50;52.30;;;;;;5012212;28;20546;-49
2022/12/05 04:10:48;;;;;;;10.27;9.57;;;19.50;52.70;;;;;;5012042;28;20969;-49
2022/12/05 04:13:18;;;;;;;9.87;9.23;;;19.50;52.10;;;;;;5011982;28;20447;-50
2022/12/05 04:18:39;;;;;;;9.63;9.03;;;19.50;52.40;;;;;;5012903;28;20469;-51
2022/12/05 04:26:35;;;;;;;10.30;9.57;;;19.50;52.50;;;;;;4991695;28;20776;-50
2022/12/05 04:29:07;;;;;;;10.53;9.83;;;19.50;52.50;;;;;;4992429;28;20537;-50
2022/12/05 04:31:39;;;;;;;10.77;9.97;;;19.40;52.40;;;;;;4992427;28;20486;-53
2022/12/05 04:34:10;;;;;;;10.30;9.73;;;19.40;52.40;;;;;;4992525;28;20538;-54
2022/12/05 04:36:42;;;;;;;10.70;10.00;;;19.40;52.40;;;;;;4995590;28;20442;-56
2022/12/05 04:39:15;;;;;;;11.20;10.50;;;19.40;52.50;;;;;;5012045;28;20529;-54
2022/12/05 04:41:47;;;;;;;11.30;10.60;;;19.40;52.50;;;;;;5011922;28;20473;-53
2022/12/05 04:44:18;;;;;;;10.33;9.63;;;19.40;52.40;;;;;;5011926;28;20492;-57
2022/12/05 04:46:46;;;;;;;10.57;9.87;;;19.40;52.30;;;;;;5011996;28;20478;-54
2022/12/05 04:49:21;;;;;;;11.73;10.93;;;19.40;52.40;;;;;;5012602;28;20452;-53
2022/12/05 04:51:52;;;;;;;10.33;9.73;;;19.40;52.40;;;;;;5016113;28;20556;-55
2022/12/05 04:54:24;;;;;;;9.87;9.13;;;19.40;52.50;;;;;;5016249;28;20452;-53
2022/12/05 04:56:54;;;;;;;11.63;10.83;;;19.40;52.50;;;;;;5016048;28;20488;-53
2022/12/05 04:59:21;;;;;;;9.90;9.20;;;19.40;52.50;;;;;;5015618;28;20525;-51
2022/12/05 05:01:53;;;;;;;10.43;9.83;;;19.40;52.50;;;;;;5015396;28;20497;-52
2022/12/05 05:04:27;;;;;;;13.07;12.07;;;19.40;52.50;;;;;;5015580;28;20490;-53
2022/12/05 05:06:53;;;;;;;10.27;9.60;;;19.40;52.70;;;;;;5015127;28;20535;-49
2022/12/05 05:09:20;;;;;;;11.43;10.63;;;19.40;52.80;;;;;;5015128;28;20453;-49
2022/12/05 05:11:47;;;;;;;11.93;11.23;;;19.40;53.10;;;;;;5015161;28;20465;-50
2022/12/05 05:14:14;;;;;;;10.47;9.87;;;19.40;53.00;;;;;;5015194;28;20469;-49
2022/12/05 05:16:43;;;;;;;12.20;11.40;;;19.30;53.10;;;;;;5014986;28;20457;-52
2022/12/05 05:19:11;;;;;;;10.70;10.10;;;19.40;53.30;;;;;;5013766;28;20984;-49
2022/12/05 05:21:41;;;;;;;10.90;10.10;;;19.30;53.30;;;;;;5014920;28;20831;-49
2022/12/05 05:24:10;;;;;;;11.13;10.30;;;19.40;53.20;;;;;;5015028;28;20482;-49
2022/12/05 05:26:39;;;;;;;10.87;10.27;;;19.40;53.00;;;;;;5015079;28;20948;-50
2022/12/05 05:29:07;;;;;;;11.47;10.27;;;19.40;53.00;;;;;;5014556;28;20541;-54
2022/12/05 05:31:34;;;;;;;18.33;13.53;;;19.40;53.30;;;;;;5014807;28;20497;-54
2022/12/05 05:34:01;;;;;;;14.57;13.03;;;19.40;55.50;;;;;;5014929;28;20540;-54
2022/12/05 05:36:28;;;;;;;25.57;14.27;;;19.50;61.60;;;;;;5015095;28;20450;-52
2022/12/05 05:38:59;;;;;;;19.50;14.60;;;19.50;70.70;;;;;;5014477;28;20442;-52
2022/12/05 05:41:28;;;;;;;19.93;13.97;;;19.50;68.30;;;;;;5014441;28;20577;-59
2022/12/05 05:43:56;;;;;;;18.00;14.27;;;19.40;64.70;;;;;;5014627;28;20576;-50
2022/12/05 05:46:25;;;;;;;15.80;13.10;;;19.50;66.00;;;;;;5014666;28;20485;-53
2022/12/05 05:48:52;;;;;;;21.70;15.60;;;19.60;69.20;;;;;;5014145;28;20500;-52
2022/12/05 05:51:22;;;;;;;24.33;13.27;;;19.60;69.80;;;;;;5014561;28;20553;-50
2022/12/05 05:53:49;;;;;;;15.53;13.27;;;19.60;68.20;;;;;;5014624;28;20524;-54
2022/12/05 05:56:20;;;;;;;20.27;13.60;;;19.80;71.30;;;;;;5014453;28;20458;-58
2022/12/05 05:58:47;;;;;;;17.07;12.73;;;19.80;72.40;;;;;;5014358;28;20449;-55
2022/12/05 06:01:17;;;;;;;15.40;14.03;;;19.80;71.80;;;;;;5012321;28;20485;-53
2022/12/05 06:03:45;;;;;;;15.00;13.07;;;19.90;72.30;;;;;;5012234;28;21087;-55
2022/12/05 06:06:14;;;;;;;14.80;12.83;;;20.00;71.90;;;;;;5013956;28;20450;-49
2022/12/05 06:08:43;;;;;;;16.17;13.93;;;20.20;71.30;;;;;;5014154;28;20533;-51
2022/12/05 06:11:11;;;;;;;15.10;12.63;;;20.30;70.30;;;;;;5014027;28;20501;-49
2022/12/05 06:13:40;;;;;;;19.37;15.27;;;20.30;69.00;;;;;;5013941;28;20533;-54
2022/12/05 06:16:09;;;;;;;13.17;11.70;;;20.40;68.00;;;;;;5014152;28;20446;-49
2022/12/05 06:18:36;;;;;;;14.57;13.10;;;20.50;67.00;;;;;;5014099;28;20485;-55
2022/12/05 06:21:04;;;;;;;15.27;13.67;;;20.50;66.00;;;;;;5013698;28;20545;-52
2022/12/05 06:23:31;;;;;;;16.43;14.80;;;20.50;65.10;;;;;;5013855;28;20492;-53
2022/12/05 06:25:58;;;;;;;17.73;14.67;;;20.50;64.30;;;;;;5013845;28;20452;-52
2022/12/05 06:28:27;;;;;;;16.43;13.37;;;20.60;63.60;;;;;;5013891;28;20493;-56
2022/12/05 06:30:55;;;;;;;12.87;11.97;;;20.60;62.90;;;;;;5013482;28;20557;-54
2022/12/05 06:33:22;;;;;;;12.73;11.77;;;20.60;62.30;;;;;;5013731;28;20442;-50
2022/12/05 06:35:49;;;;;;;14.60;11.60;;;20.60;61.70;;;;;;5013661;28;20450;-55
2022/12/05 06:38:16;;;;;;;15.07;11.97;;;20.60;61.10;;;;;;5013681;28;20564;-54
2022/12/05 06:40:44;;;;;;;14.77;13.43;;;20.60;60.50;;;;;;5013287;28;20913;-51
2022/12/05 06:43:12;;;;;;;13.93;12.93;;;20.60;60.00;;;;;;5013482;28;20478;-51
2022/12/05 06:45:39;;;;;;;13.50;12.43;;;20.60;59.70;;;;;;5013669;28;20452;-53
2022/12/05 06:48:07;;;;;;;12.47;11.47;;;20.60;59.40;;;;;;5013449;28;20711;-54
2022/12/05 06:50:34;;;;;;;13.27;12.37;;;20.60;59.10;;;;;;5013148;28;20494;-56
2022/12/05 06:53:01;;;;;;;13.87;12.67;;;20.60;58.90;;;;;;5013331;28;20898;-51
2022/12/05 06:55:27;;;;;;;14.03;13.20;;;20.60;58.60;;;;;;5013381;28;20446;-52
2022/12/05 06:57:54;;;;;;;13.00;11.93;;;20.60;58.40;;;;;;5013208;28;20489;-55
2022/12/05 07:03:07;;;;;;;12.83;11.67;;;20.60;58.20;;;;;;5013433;28;20493;-52
2022/12/05 07:05:34;;;;;;;13.70;12.40;;;20.60;57.80;;;;;;5013372;28;20453;-53
2022/12/05 07:08:00;;;;;;;13.30;12.00;;;20.50;57.50;;;;;;5013252;28;20442;-53
2022/12/05 07:10:27;;;;;;;13.13;12.20;;;20.50;57.40;;;;;;5012844;28;20528;-52
2022/12/05 07:12:55;;;;;;;12.63;11.73;;;20.50;57.20;;;;;;5012715;28;20525;-50
2022/12/05 07:15:22;;;;;;;11.87;10.97;;;20.50;57.10;;;;;;5013013;28;20836;-50
2022/12/05 07:17:48;;;;;;;12.20;11.20;;;20.50;57.00;;;;;;5012976;28;20878;-54
2022/12/05 07:20:17;;;;;;;12.40;11.03;;;20.50;57.40;;;;;;5012658;28;20996;-49
2022/12/05 07:22:44;;;;;;;12.27;11.37;;;20.50;56.70;;;;;;5012772;28;20453;-50
2022/12/05 07:25:11;;;;;;;12.03;11.23;;;20.50;56.50;;;;;;5012810;28;20442;-55
2022/12/05 07:27:40;;;;;;;12.33;11.27;;;20.40;56.40;;;;;;5013052;28;20454;-50
2022/12/05 07:30:08;;;;;;;12.23;11.37;;;20.40;56.30;;;;;;5012487;28;20445;-52
2022/12/05 07:32:35;;;;;;;11.27;10.57;;;20.40;56.10;;;;;;5012642;28;20482;-53
2022/12/05 07:35:02;;;;;;;12.40;11.30;;;20.40;56.10;;;;;;5012634;28;20477;-50
2022/12/05 07:37:30;;;;;;;12.17;11.30;;;20.40;55.90;;;;;;5012550;28;20875;-52
2022/12/05 07:39:57;;;;;;;11.83;11.03;;;20.30;55.80;;;;;;5012449;28;20541;-52
2022/12/05 07:42:23;;;;;;;11.40;10.67;;;20.30;55.70;;;;;;5061556;23;20490;-59
2022/12/05 07:44:50;;;;;;;11.37;10.50;;;20.30;55.60;;;;;;5044140;28;20483;-58
2022/12/05 07:47:17;;;;;;;10.70;10.20;;;20.30;55.50;;;;;;5051998;28;20571;-59
2022/12/05 07:49:44;;;;;;;11.43;10.73;;;20.30;55.30;;;;;;5051620;28;20452;-60
2022/12/05 07:52:11;;;;;;;12.37;11.40;;;20.30;55.20;;;;;;5051935;28;20554;-58
2022/12/05 07:54:39;;;;;;;12.10;11.30;;;20.30;55.20;;;;;;5052033;28;20814;-61
2022/12/05 07:57:06;;;;;;;12.27;11.27;;;20.30;55.10;;;;;;5051955;28;20440;-61
2022/12/05 07:59:32;;;;;;;12.63;11.73;;;20.30;55.10;;;;;;5051628;28;20935;-61
2022/12/05 08:01:59;;;;;;;11.60;10.80;;;20.30;55.00;;;;;;5051744;28;20470;-60
2022/12/05 08:04:26;;;;;;;11.90;11.10;;;20.30;55.00;;;;;;5051738;28;20486;-61
2022/12/05 08:06:53;;;;;;;12.20;11.27;;;20.40;55.10;;;;;;5051758;28;20447;-57
2022/12/05 08:09:20;;;;;;;11.47;10.67;;;20.40;55.10;;;;;;5051595;28;20885;-59
2022/12/05 08:11:48;;;;;;;11.30;10.53;;;20.40;55.00;;;;;;5051502;28;20547;-59
2022/12/05 08:14:15;;;;;;;11.77;10.97;;;20.40;54.90;;;;;;5051571;28;20437;-57
2022/12/05 08:16:41;;;;;;;11.83;11.20;;;20.50;54.90;;;;;;5051539;28;20909;-56
2022/12/05 08:19:11;;;;;;;11.20;10.60;;;20.50;54.80;;;;;;5051410;28;20448;-60
2022/12/05 08:21:38;;;;;;;10.73;10.13;;;20.50;54.70;;;;;;5051670;28;20476;-58
2022/12/05 08:24:06;;;;;;;11.00;10.30;;;20.50;54.60;;;;;;5050860;28;20990;-58
2022/12/05 08:26:35;;;;;;;11.97;11.17;;;20.50;54.40;;;;;;5051631;28;20531;-59
2022/12/05 08:29:06;;;;;;;10.77;10.07;;;20.50;54.40;;;;;;5051193;28;20487;-58
2022/12/05 08:31:35;;;;;;;11.80;11.03;;;20.50;54.30;;;;;;5051358;28;20464;-58
2022/12/05 08:34:02;;;;;;;11.10;10.43;;;20.50;54.20;;;;;;5051325;28;20443;-59
2022/12/05 08:36:30;;;;;;;11.57;10.80;;;20.50;54.10;;;;;;5051402;28;20440;-59
2022/12/05 08:38:59;;;;;;;11.00;10.40;;;20.50;54.00;;;;;;5051429;28;20531;-58
2022/12/05 08:41:27;;;;;;;11.47;10.77;;;20.50;53.90;;;;;;5051289;28;20471;-58
2022/12/05 08:43:54;;;;;;;11.90;11.20;;;20.50;53.80;;;;;;5051390;28;20515;-58
2022/12/05 08:46:23;;;;;;;10.90;10.20;;;20.50;53.80;;;;;;5051210;28;20807;-57
2022/12/05 08:48:49;;;;;;;11.73;11.03;;;20.50;53.70;;;;;;5051132;28;20478;-59
2022/12/05 08:51:16;;;;;;;11.90;11.20;;;20.40;53.60;;;;;;5051121;28;20468;-60
2022/12/05 08:53:43;;;;;;;10.83;10.23;;;20.50;53.60;;;;;;5051262;28;20463;-59
2022/12/05 08:56:10;;;;;;;11.30;10.70;;;20.40;53.50;;;;;;5051265;28;20476;-58
2022/12/05 08:58:38;;;;;;;10.70;10.10;;;20.40;53.40;;;;;;5051441;28;21029;-58
2022/12/05 09:01:06;;;;;;;11.23;10.33;;;20.40;53.40;;;;;;5050794;28;20503;-59
2022/12/05 09:03:35;;;;;;;10.70;10.10;;;20.40;53.30;;;;;;5051101;28;20978;-58
2022/12/05 09:06:09;;;;;;;11.50;10.80;;;20.40;53.10;;;;;;5051109;28;20475;-58
2022/12/05 09:08:36;;;;;;;10.30;9.70;;;20.40;53.10;;;;;;5051068;28;21004;-59
2022/12/05 09:11:06;;;;;;;11.97;11.30;;;20.40;53.00;;;;;;5050780;28;20456;-58
2022/12/05 09:13:33;;;;;;;11.60;10.90;;;20.30;52.90;;;;;;5051067;28;20440;-57
2022/12/05 09:16:05;;;;;;;10.90;10.20;;;20.30;52.80;;;;;;5050971;28;20479;-58
2022/12/05 09:18:34;;;;;;;11.30;10.70;;;20.30;52.80;;;;;;5051275;28;20440;-59
2022/12/05 09:21:05;;;;;;;10.03;9.53;;;20.30;52.70;;;;;;5050629;28;20506;-58
2022/12/05 09:23:32;;;;;;;10.50;9.87;;;20.30;52.70;;;;;;5050931;28;21104;-59
2022/12/05 09:26:01;;;;;;;10.30;9.80;;;20.30;52.70;;;;;;5050960;28;20447;-59
2022/12/05 09:28:28;;;;;;;10.87;10.37;;;20.30;52.60;;;;;;5050854;28;20440;-59
2022/12/05 09:30:57;;;;;;;11.40;10.80;;;20.20;52.60;;;;;;5050461;28;21013;-57
2022/12/05 09:33:24;;;;;;;11.03;10.37;;;20.20;52.60;;;;;;5050840;28;20463;-56
2022/12/05 09:35:52;;;;;;;11.13;10.63;;;20.20;52.50;;;;;;5052534;28;20539;-59
2022/12/05 09:38:19;;;;;;;11.10;10.50;;;20.20;52.50;;;;;;5054442;28;20440;-58
2022/12/05 09:40:47;;;;;;;11.30;10.57;;;20.10;52.50;;;;;;5054186;28;20503;-58
2022/12/05 09:43:25;;;;;;;11.60;10.90;;;20.20;53.10;;;;;;5054457;28;20525;-59
2022/12/05 09:46:00;;;;;;;9.53;9.03;;;20.20;52.60;;;;;;5054420;28;20527;-58
2022/12/05 09:48:27;;;;;;;9.97;9.50;;;20.20;52.60;;;;;;5054332;28;20482;-56
2022/12/05 09:51:00;;;;;;;10.13;9.63;;;20.20;52.70;;;;;;5053990;28;21034;-55
2022/12/05 09:53:30;;;;;;;10.20;9.70;;;20.20;52.70;;;;;;5054268;28;20839;-60
2022/12/05 09:56:03;;;;;;;11.27;10.57;;;20.30;52.80;;;;;;5054267;28;20445;-58
2022/12/05 09:58:41;;;;;;;10.20;9.70;;;20.30;52.80;;;;;;5054438;28;20530;-58
2022/12/05 10:01:24;;;;;;;10.57;9.80;;;20.30;52.80;;;;;;5053818;28;20542;-59
2022/12/05 10:04:05;;;;;;;10.70;10.10;;;20.30;52.70;;;;;;5054089;28;20579;-59
2022/12/05 10:06:40;;;;;;;10.37;9.87;;;20.40;52.80;;;;;;5054063;28;20447;-58
2022/12/05 10:09:24;;;;;;;9.27;8.77;;;20.40;52.70;;;;;;5053798;28;20447;-59
2022/12/05 10:11:58;;;;;;;12.67;11.93;;;20.40;52.60;;;;;;5054010;28;20456;-59
2022/12/05 10:14:33;;;;;;;10.50;9.90;;;20.40;52.50;;;;;;5053851;28;20527;-59
2022/12/05 10:17:07;;;;;;;10.33;9.83;;;20.40;52.50;;;;;;5053862;28;20535;-59
2022/12/05 10:19:38;;;;;;;10.63;10.10;;;20.40;52.40;;;;;;5053587;28;20814;-58
2022/12/05 10:22:13;;;;;;;11.97;11.30;;;20.40;52.30;;;;;;5053567;28;20998;-60
2022/12/05 10:24:44;;;;;;;9.53;9.10;;;20.40;52.30;;;;;;5053593;28;20549;-59
2022/12/05 10:27:16;;;;;;;10.60;10.10;;;20.40;52.20;;;;;;5053773;28;20441;-58
2022/12/05 10:29:50;;;;;;;9.87;9.37;;;20.40;52.20;;;;;;5053351;28;20466;-59
2022/12/05 10:32:22;;;;;;;9.27;8.77;;;20.40;52.20;;;;;;5053457;28;20487;-58
2022/12/05 10:34:52;;;;;;;9.47;8.97;;;20.40;52.10;;;;;;5053514;28;20445;-58
2022/12/05 10:37:23;;;;;;;10.30;9.80;;;20.40;52.00;;;;;;5053398;28;20476;-57
2022/12/05 10:39:54;;;;;;;10.50;10.00;;;20.30;51.90;;;;;;5053114;28;20446;-59
2022/12/05 10:42:25;;;;;;;10.17;9.67;;;20.40;52.00;;;;;;5053184;28;20579;-56
2022/12/05 10:44:57;;;;;;;10.83;10.33;;;20.40;51.90;;;;;;5053275;28;20476;-60
2022/12/05 10:47:24;;;;;;;10.20;9.60;;;20.30;51.80;;;;;;5052811;28;20450;-59
2022/12/05 10:49:51;;;;;;;9.73;9.33;;;20.30;51.80;;;;;;5052984;28;20483;-59
2022/12/05 10:52:19;;;;;;;10.40;9.90;;;20.30;51.70;;;;;;5052982;28;20466;-58
2022/12/05 10:54:51;;;;;;;9.73;9.33;;;20.30;51.70;;;;;;5052912;28;20463;-60
2022/12/05 10:57:23;;;;;;;9.57;9.17;;;20.30;51.70;;;;;;5052940;28;20951;-57
2022/12/05 10:59:51;;;;;;;10.27;9.73;;;20.30;51.70;;;;;;5052786;28;20502;-57
2022/12/05 11:02:23;;;;;;;10.13;9.57;;;20.30;51.60;;;;;;5052782;28;20551;-59
2022/12/05 11:04:50;;;;;;;10.00;9.60;;;20.30;51.70;;;;;;5052871;28;20487;-59
2022/12/05 11:07:30;;;;;;;10.50;9.90;;;20.20;51.60;;;;;;5052696;28;20483;-58
2022/12/05 11:09:57;;;;;;;10.03;9.53;;;20.20;51.60;;;;;;5052649;28;20463;-59
2022/12/05 11:12:27;;;;;;;10.47;9.87;;;20.20;51.50;;;;;;5052632;28;20994;-58
2022/12/05 11:15:00;;;;;;;10.43;9.83;;;20.20;51.60;;;;;;5052789;28;20447;-58
2022/12/05 11:17:32;;;;;;;10.17;9.67;;;20.20;51.50;;;;;;5052650;28;20840;-59
2022/12/05 11:19:59;;;;;;;8.70;8.40;;;20.10;51.50;;;;;;5052289;28;20448;-58
2022/12/05 11:22:35;;;;;;;9.20;8.70;;;20.10;51.50;;;;;;5052506;28;20548;-59
2022/12/05 11:25:25;;;;;;;9.97;9.47;;;20.10;51.60;;;;;;5052407;28;20492;-57
2022/12/05 11:27:53;;;;;;;9.53;9.10;;;20.10;51.60;;;;;;5052507;28;20479;-59
2022/12/05 11:30:22;;;;;;;10.90;10.47;;;20.10;51.60;;;;;;5052108;28;20480;-61
2022/12/05 11:32:49;;;;;;;10.27;9.87;;;20.10;51.70;;;;;;5052632;28;20448;-60
2022/12/05 11:35:25;;;;;;;9.87;9.47;;;20.10;51.70;;;;;;5052336;28;20927;-61
2022/12/05 11:37:56;;;;;;;10.80;10.30;;;20.10;51.70;;;;;;5052281;28;20444;-60
2022/12/05 11:40:30;;;;;;;11.20;10.60;;;20.10;51.70;;;;;;5052035;28;20444;-59
2022/12/05 11:43:28;;;;;;;9.63;9.20;;;20.10;51.80;;;;;;5052204;28;20584;-58
2022/12/05 11:46:04;;;;;;;9.30;8.90;;;20.20;51.90;;;;;;5051767;28;20486;-59
2022/12/05 11:48:47;;;;;;;10.17;9.77;;;20.20;51.80;;;;;;5052193;28;20534;-60
2022/12/05 11:51:34;;;;;;;9.57;9.10;;;20.20;51.70;;;;;;5052000;28;20468;-58
2022/12/05 11:54:31;;;;;;;8.80;8.40;;;20.30;51.80;;;;;;5052062;28;20543;-59
2022/12/05 11:57:02;;;;;;;9.70;9.10;;;20.30;51.70;;;;;;5048417;28;20897;-60
2022/12/05 11:59:46;;;;;;;9.37;8.90;;;20.30;51.70;;;;;;5050995;28;20441;-60
2022/12/05 12:02:26;;;;;;;9.10;8.70;;;20.30;51.60;;;;;;5051924;28;20830;-59
2022/12/05 12:05:02;;;;;;;10.00;9.60;;;20.30;51.50;;;;;;5051808;28;20479;-59
2022/12/05 12:07:45;;;;;;;9.70;9.30;;;20.30;51.50;;;;;;5051816;28;20471;-61
2022/12/05 12:10:23;;;;;;;9.97;9.50;;;20.30;51.40;;;;;;5051490;28;20878;-59
2022/12/05 12:13:00;;;;;;;9.27;8.77;;;20.30;51.30;;;;;;5051707;28;20529;-59
2022/12/05 12:15:51;;;;;;;9.47;9.07;;;20.30;51.30;;;;;;5051676;28;20561;-59
2022/12/05 12:18:32;;;;;;;9.33;8.93;;;20.30;51.30;;;;;;5051614;28;20472;-58
2022/12/05 12:21:16;;;;;;;8.80;8.40;;;20.30;51.20;;;;;;5051444;28;20506;-62
2022/12/05 12:23:52;;;;;;;9.80;9.30;;;20.20;51.60;;;;;;5051666;28;20454;-59
2022/12/05 12:26:30;;;;;;;9.77;9.37;;;20.20;51.00;;;;;;5051383;28;20861;-61
2022/12/05 12:29:08;;;;;;;9.40;9.00;;;20.20;50.90;;;;;;5051427;28;20472;-60
2022/12/05 12:31:55;;;;;;;9.57;9.17;;;20.20;50.90;;;;;;5051559;28;20470;-59
2022/12/05 12:34:44;;;;;;;9.63;9.20;;;20.20;50.90;;;;;;5051919;28;20931;-60
2022/12/05 12:37:18;;;;;;;9.50;9.07;;;20.20;50.80;;;;;;5053276;28;20532;-61
2022/12/05 12:39:51;;;;;;;9.60;9.10;;;20.20;50.80;;;;;;5051530;28;20526;-61
2022/12/05 12:42:27;;;;;;;9.30;8.90;;;20.10;50.70;;;;;;5051502;28;20471;-61
2022/12/05 12:45:23;;;;;;;9.10;8.73;;;20.10;50.70;;;;;;5051386;28;20567;-60
2022/12/05 12:48:05;;;;;;;10.27;9.77;;;20.10;50.70;;;;;;5051420;28;20488;-61
2022/12/05 12:50:34;;;;;;;10.00;9.60;;;20.10;50.70;;;;;;5051077;28;20789;-61
2022/12/05 12:53:27;;;;;;;9.40;8.97;;;20.10;50.70;;;;;;5051812;28;20531;-61
2022/12/05 12:56:02;;;;;;;9.17;8.80;;;20.10;50.70;;;;;;5053277;28;20447;-61
2022/12/05 12:58:44;;;;;;;9.87;9.47;;;20.00;50.60;;;;;;5054591;28;20482;-61
2022/12/05 13:01:16;;;;;;;8.83;8.53;;;20.00;50.60;;;;;;5056384;28;20894;-61
2022/12/05 13:03:49;;;;;;;9.90;9.40;;;20.00;50.60;;;;;;5055589;28;20476;-61
2022/12/05 13:06:20;;;;;;;8.70;8.40;;;19.90;50.60;;;;;;5054780;28;20535;-61